createdAt,value
2022-12-08T00:01:33.398Z,30.42
2022-12-08T00:04:04.033Z,31.38
2022-12-08T00:07:01.174Z,35.75
2022-12-08T00:09:38.187Z,40.25
2022-12-08T00:12:16.635Z,44.72
2022-12-08T00:14:46.350Z,32.25
2022-12-08T00:17:16.384Z,30.25
2022-12-08T00:19:43.970Z,29.88
2022-12-08T00:22:12.870Z,30.63
2022-12-08T00:24:41.822Z,32.38
2022-12-08T00:27:11.114Z,42.70
2022-12-08T00:29:38.889Z,36.45
2022-12-08T00:32:08.629Z,39.03
2022-12-08T00:34:35.921Z,33.08
2022-12-08T00:37:03.678Z,32.80
2022-12-08T00:39:32.065Z,35.55
2022-12-08T00:42:14.600Z,34.47
2022-12-08T00:44:44.805Z,37.65
2022-12-08T00:47:13.923Z,39.63
2022-12-08T00:49:41.631Z,39.67
2022-12-08T00:52:09.450Z,36.47
2022-12-08T00:54:36.825Z,33.10
2022-12-08T00:57:04.447Z,33.53
2022-12-08T00:59:31.870Z,34.80
2022-12-08T01:02:00.292Z,35.88
2022-12-08T01:04:27.827Z,33.78
2022-12-08T01:06:55.498Z,33.35
2022-12-08T01:09:23.924Z,32.50
2022-12-08T01:11:54.244Z,33.47
2022-12-08T01:14:21.970Z,32.63
2022-12-08T01:16:49.881Z,33.10
2022-12-08T01:19:18.013Z,33.25
2022-12-08T01:21:46.413Z,30.05
2022-12-08T01:24:20.490Z,31.90
2022-12-08T01:26:50.501Z,32.10
2022-12-08T01:29:18.090Z,43.75
2022-12-08T01:31:47.071Z,40.47
2022-12-08T01:34:14.589Z,31.25
2022-12-08T01:36:44.382Z,27.75
2022-12-08T01:39:16.969Z,20.50
2022-12-08T01:41:46.423Z,25.92
2022-12-08T01:44:13.741Z,24.92
2022-12-08T01:46:46.117Z,25.67
2022-12-08T01:49:23.192Z,27.13
2022-12-08T01:52:10.145Z,37.05
2022-12-08T01:55:06.149Z,32.92
2022-12-08T01:57:45.369Z,24.85
2022-12-08T02:00:16.778Z,27.83
2022-12-08T02:02:54.487Z,24.02
2022-12-08T02:05:25.279Z,21.27
2022-12-08T02:07:55.872Z,20.17
2022-12-08T02:10:24.608Z,28.67
2022-12-08T02:12:54.928Z,24.30
2022-12-08T02:15:50.562Z,21.65
2022-12-08T02:18:33.026Z,22.73
2022-12-08T02:21:17.916Z,23.50
2022-12-08T02:24:07.610Z,27.05
2022-12-08T02:27:03.933Z,20.42
2022-12-08T02:29:43.493Z,20.38
2022-12-08T02:32:28.690Z,21.85
2022-12-08T02:35:14.729Z,17.98
2022-12-08T02:37:50.596Z,18.90
2022-12-08T02:40:31.977Z,18.33
2022-12-08T02:43:28.386Z,18.77
2022-12-08T02:46:02.323Z,21.70
2022-12-08T02:48:30.642Z,22.10
2022-12-08T02:51:00.492Z,22.33
2022-12-08T02:53:32.421Z,20.00
2022-12-08T02:56:14.078Z,20.73
2022-12-08T02:59:12.793Z,19.75
2022-12-08T03:02:13.645Z,33.92
2022-12-08T03:05:02.475Z,32.40
2022-12-08T03:07:30.131Z,30.98
2022-12-08T03:10:10.073Z,22.67
2022-12-08T03:12:46.776Z,26.30
2022-12-08T03:15:19.125Z,26.40
2022-12-08T03:17:51.473Z,28.45
2022-12-08T03:20:25.379Z,40.20
2022-12-08T03:22:58.887Z,31.38
2022-12-08T03:25:30.523Z,30.30
2022-12-08T03:28:06.752Z,21.95
2022-12-08T03:30:38.897Z,24.13
2022-12-08T03:33:30.117Z,22.63
2022-12-08T03:35:59.770Z,21.83
2022-12-08T03:38:36.794Z,23.48
2022-12-08T03:41:19.720Z,18.67
2022-12-08T03:43:59.565Z,21.27
2022-12-08T03:48:57.640Z,20.77
2022-12-08T03:51:27.398Z,20.85
2022-12-08T03:53:55.227Z,19.48
2022-12-08T03:56:29.955Z,20.40
2022-12-08T03:58:57.915Z,19.70
2022-12-08T04:01:25.652Z,19.33
2022-12-08T04:03:53.942Z,20.73
2022-12-08T04:06:21.872Z,24.63
2022-12-08T04:08:50.408Z,21.42
2022-12-08T04:11:18.326Z,17.70
2022-12-08T04:13:46.194Z,18.35
2022-12-08T04:16:17.243Z,19.80
2022-12-08T04:18:45.218Z,19.50
2022-12-08T04:21:12.843Z,20.63
2022-12-08T04:23:40.916Z,20.48
2022-12-08T04:26:08.513Z,21.70
2022-12-08T04:28:36.736Z,21.98
2022-12-08T04:31:05.764Z,25.65
2022-12-08T04:33:35.530Z,20.95
2022-12-08T04:36:04.973Z,20.67
2022-12-08T04:38:34.186Z,24.30
2022-12-08T04:41:02.202Z,22.55
2022-12-08T04:43:30.362Z,21.42
2022-12-08T04:45:57.998Z,20.90
2022-12-08T04:48:25.917Z,21.60
2022-12-08T04:50:53.317Z,22.90
2022-12-08T04:53:21.532Z,20.65
2022-12-08T04:55:49.763Z,23.90
2022-12-08T04:58:20.611Z,25.65
2022-12-08T05:00:48.403Z,32.05
2022-12-08T05:03:17.287Z,23.02
2022-12-08T05:05:45.149Z,21.35
2022-12-08T05:08:12.772Z,24.45
2022-12-08T05:10:40.586Z,27.63
2022-12-08T05:13:08.766Z,25.13
2022-12-08T05:15:36.339Z,24.13
2022-12-08T05:18:06.862Z,23.75
2022-12-08T05:20:34.718Z,25.60
2022-12-08T05:23:02.863Z,23.20
2022-12-08T05:25:30.120Z,24.80
2022-12-08T05:28:17.736Z,23.02
2022-12-08T05:30:44.894Z,26.00
2022-12-08T05:33:13.510Z,21.65
2022-12-08T05:35:41.070Z,24.13
2022-12-08T05:38:11.379Z,25.27
2022-12-08T05:40:43.586Z,29.38
2022-12-08T05:43:11.514Z,26.13
2022-12-08T05:45:39.124Z,25.20
2022-12-08T05:48:06.806Z,26.02
2022-12-08T05:50:34.106Z,26.17
2022-12-08T05:53:05.008Z,27.13
2022-12-08T05:55:32.252Z,26.92
2022-12-08T05:58:03.156Z,27.10
2022-12-08T06:00:35.176Z,25.20
2022-12-08T06:03:02.967Z,28.23
2022-12-08T06:05:32.145Z,30.70
2022-12-08T06:07:59.761Z,29.45
2022-12-08T06:10:28.227Z,32.50
2022-12-08T06:12:55.814Z,32.67
2022-12-08T06:15:23.747Z,62.72
2022-12-08T06:17:51.400Z,34.00
2022-12-08T06:20:18.956Z,36.25
2022-12-08T06:22:46.625Z,37.22
2022-12-08T06:25:13.822Z,36.88
2022-12-08T06:27:41.334Z,41.70
2022-12-08T06:30:08.950Z,57.08
2022-12-08T06:32:37.434Z,39.95
2022-12-08T06:35:04.998Z,38.20
2022-12-08T06:37:32.785Z,53.33
2022-12-08T06:40:00.114Z,45.17
2022-12-08T06:42:46.772Z,48.03
2022-12-08T06:45:16.451Z,44.45
2022-12-08T06:47:45.223Z,39.58
2022-12-08T06:50:14.335Z,41.58
2022-12-08T06:52:53.262Z,47.75
2022-12-08T06:58:15.022Z,384.88
2022-12-08T07:00:42.514Z,52.60
2022-12-08T07:03:15.390Z,380.13
2022-12-08T07:05:44.904Z,60.75
2022-12-08T07:08:12.725Z,69.00
2022-12-08T07:10:40.018Z,81.70
2022-12-08T07:13:09.672Z,56.80
2022-12-08T07:15:37.032Z,43.20
2022-12-08T07:18:06.856Z,46.13
2022-12-08T07:20:34.398Z,57.15
2022-12-08T07:23:02.205Z,98.20
2022-12-08T07:25:29.660Z,44.70
2022-12-08T07:27:57.278Z,52.92
2022-12-08T07:30:25.250Z,75.18
2022-12-08T07:32:54.233Z,44.40
2022-12-08T07:35:22.959Z,44.50
2022-12-08T07:37:50.615Z,69.88
2022-12-08T07:40:18.213Z,49.25
2022-12-08T07:43:04.789Z,39.33
2022-12-08T07:45:32.108Z,41.95
2022-12-08T07:47:59.747Z,48.28
2022-12-08T07:50:27.165Z,48.33
2022-12-08T07:52:57.572Z,52.92
2022-12-08T07:55:26.558Z,35.95
2022-12-08T07:57:54.030Z,39.70
2022-12-08T08:00:23.150Z,41.33
2022-12-08T08:02:51.155Z,30.00
2022-12-08T08:05:20.784Z,39.80
2022-12-08T08:07:53.368Z,36.47
2022-12-08T08:10:22.902Z,30.13
2022-12-08T08:12:51.631Z,30.15
2022-12-08T08:15:25.299Z,38.33
2022-12-08T08:17:52.885Z,34.83
2022-12-08T08:20:21.570Z,35.40
2022-12-08T08:23:17.256Z,46.45
2022-12-08T08:25:44.449Z,37.67
2022-12-08T08:28:11.941Z,38.00
2022-12-08T08:30:39.348Z,101.45
2022-12-08T08:33:06.962Z,34.60
2022-12-08T08:35:34.991Z,44.10
2022-12-08T08:38:02.524Z,39.33
2022-12-08T08:40:30.040Z,40.00
2022-12-08T08:43:01.466Z,38.13
2022-12-08T08:45:33.049Z,34.13
2022-12-08T08:48:30.202Z,43.95
2022-12-08T08:50:59.101Z,32.38
2022-12-08T08:53:26.713Z,41.03
2022-12-08T08:55:53.903Z,40.22
2022-12-08T08:58:21.504Z,35.00
2022-12-08T09:00:48.725Z,31.05
2022-12-08T09:03:19.677Z,33.20
2022-12-08T09:05:47.024Z,34.55
2022-12-08T09:08:14.676Z,28.00
2022-12-08T09:10:42.850Z,49.08
2022-12-08T09:13:10.362Z,33.65
2022-12-08T09:15:38.127Z,34.38
2022-12-08T09:18:08.415Z,36.05
2022-12-08T09:20:36.303Z,51.75
2022-12-08T09:23:04.428Z,42.95
2022-12-08T09:25:31.732Z,56.17
2022-12-08T09:27:59.342Z,49.65
2022-12-08T09:30:26.521Z,42.50
2022-12-08T09:32:54.215Z,52.30
2022-12-08T09:35:21.544Z,54.60
2022-12-08T09:37:49.086Z,50.92
2022-12-08T09:40:20.342Z,57.08
2022-12-08T09:42:55.877Z,50.08
2022-12-08T09:45:26.813Z,48.28
2022-12-08T09:47:59.183Z,48.60
2022-12-08T09:50:50.138Z,55.00
2022-12-08T09:53:35.853Z,50.05
2022-12-08T09:56:14.464Z,46.50
2022-12-08T09:59:01.919Z,46.75
2022-12-08T10:01:32.430Z,42.22
2022-12-08T10:04:01.005Z,49.65
2022-12-08T10:06:39.984Z,48.40
2022-12-08T10:09:27.700Z,54.28
2022-12-08T10:12:00.443Z,53.60
2022-12-08T10:15:04.891Z,59.03
2022-12-08T10:17:44.693Z,56.00
2022-12-08T10:20:17.050Z,67.93
2022-12-08T10:22:50.956Z,75.35
2022-12-08T10:25:37.251Z,64.32
2022-12-08T10:28:04.725Z,58.88
2022-12-08T10:30:33.567Z,56.15
2022-12-08T10:33:00.829Z,51.28
2022-12-08T10:35:47.425Z,55.88
2022-12-08T10:38:35.108Z,69.55
2022-12-08T10:41:13.691Z,61.35
2022-12-08T10:43:59.044Z,57.70
2022-12-08T10:46:28.843Z,59.63
2022-12-08T10:48:57.280Z,61.67
2022-12-08T10:51:27.971Z,62.90
2022-12-08T10:53:55.679Z,62.63
2022-12-08T10:56:27.853Z,104.30
2022-12-08T10:59:15.196Z,68.00
2022-12-08T11:01:47.545Z,76.93
2022-12-08T11:04:39.992Z,110.97
2022-12-08T11:07:11.648Z,118.60
2022-12-08T11:09:48.823Z,75.18
2022-12-08T11:12:20.987Z,93.75
2022-12-08T11:15:03.138Z,78.63
2022-12-08T11:17:41.319Z,100.22
2022-12-08T11:20:11.838Z,70.80
2022-12-08T11:22:41.239Z,88.22
2022-12-08T11:25:08.441Z,79.07
2022-12-08T11:27:38.505Z,71.88
2022-12-08T11:30:18.679Z,90.50
2022-12-08T11:32:50.605Z,97.65
2022-12-08T11:35:23.813Z,83.03
2022-12-08T11:37:51.678Z,69.43
2022-12-08T11:40:38.627Z,73.18
2022-12-08T11:43:16.846Z,66.47
2022-12-08T11:45:44.343Z,62.90
2022-12-08T11:48:19.663Z,64.95
2022-12-08T11:50:54.776Z,65.70
2022-12-08T11:53:27.991Z,84.63
2022-12-08T11:56:05.297Z,156.18
2022-12-08T11:58:57.678Z,84.93
2022-12-08T12:01:26.727Z,73.32
2022-12-08T12:04:17.291Z,77.68
2022-12-08T12:06:54.776Z,64.50
2022-12-08T12:09:30.674Z,68.63
2022-12-08T12:12:44.153Z,66.97
2022-12-08T12:15:36.215Z,58.28
2022-12-08T12:18:16.504Z,65.95
2022-12-08T12:20:58.140Z,55.97
2022-12-08T12:23:31.485Z,52.53
2022-12-08T12:26:02.620Z,49.92
2022-12-08T12:28:49.899Z,47.95
2022-12-08T12:31:22.011Z,50.00
2022-12-08T12:33:51.296Z,47.58
2022-12-08T12:36:19.064Z,50.60
2022-12-08T12:39:04.285Z,48.78
2022-12-08T12:42:00.873Z,47.13
2022-12-08T12:44:28.328Z,48.55
2022-12-08T12:46:59.137Z,53.85
2022-12-08T12:49:46.150Z,51.15
2022-12-08T12:52:16.474Z,49.33
2022-12-08T12:55:03.824Z,46.10
2022-12-08T12:57:39.980Z,46.92
2022-12-08T13:00:19.012Z,49.72
2022-12-08T13:02:49.302Z,56.40
2022-12-08T13:05:21.404Z,56.00
2022-12-08T13:08:10.071Z,51.22
2022-12-08T13:11:00.895Z,45.67
2022-12-08T13:13:29.267Z,82.60
2022-12-08T13:15:59.099Z,224.15
2022-12-08T13:18:40.704Z,79.55
2022-12-08T13:21:10.263Z,47.78
2022-12-08T13:24:14.495Z,46.30
2022-12-08T13:26:45.954Z,44.92
2022-12-08T13:29:20.371Z,45.05
2022-12-08T13:31:51.226Z,47.08
2022-12-08T13:34:21.228Z,49.70
2022-12-08T13:36:55.540Z,47.97
2022-12-08T13:39:58.080Z,42.42
2022-12-08T13:42:42.527Z,48.00
2022-12-08T13:45:39.793Z,70.03
2022-12-08T13:48:41.672Z,43.25
2022-12-08T13:53:34.168Z,47.45
2022-12-08T13:57:11.650Z,43.47
2022-12-08T13:59:45.487Z,59.40
2022-12-08T14:02:38.632Z,330.85
2022-12-08T14:05:17.993Z,59.70
2022-12-08T14:07:49.341Z,63.15
2022-12-08T14:10:28.515Z,50.65
2022-12-08T14:13:00.684Z,62.65
2022-12-08T14:15:32.681Z,110.07
2022-12-08T14:18:04.723Z,49.70
2022-12-08T14:20:46.801Z,63.55
2022-12-08T14:23:21.949Z,55.28
2022-12-08T14:25:49.254Z,68.68
2022-12-08T14:28:16.949Z,56.45
2022-12-08T14:30:44.646Z,51.08
2022-12-08T14:33:19.670Z,46.72
2022-12-08T14:38:26.364Z,46.42
2022-12-08T14:41:06.293Z,44.75
2022-12-08T14:43:34.119Z,41.35
2022-12-08T14:46:05.251Z,51.40
2022-12-08T14:48:38.596Z,46.38
2022-12-08T14:51:21.440Z,52.42
2022-12-08T14:54:01.113Z,43.13
2022-12-08T14:56:50.425Z,42.78
2022-12-08T14:59:27.724Z,142.77
2022-12-08T15:02:27.225Z,58.67
2022-12-08T15:04:57.680Z,53.13
2022-12-08T15:07:48.815Z,149.93
2022-12-08T15:10:16.346Z,96.38
2022-12-08T15:12:58.545Z,100.60
2022-12-08T15:15:27.398Z,69.03
2022-12-08T15:18:13.046Z,63.13
2022-12-08T15:21:01.490Z,60.97
2022-12-08T15:23:38.529Z,45.67
2022-12-08T15:26:06.247Z,39.47
2022-12-08T15:28:33.458Z,36.90
2022-12-08T15:31:01.112Z,42.28
2022-12-08T15:33:28.652Z,44.88
2022-12-08T15:35:56.284Z,44.10
2022-12-08T15:38:31.118Z,39.15
2022-12-08T15:40:58.912Z,35.63
2022-12-08T15:43:26.358Z,35.97
2022-12-08T15:45:59.435Z,37.95
2022-12-08T15:48:30.024Z,40.80
2022-12-08T15:50:58.011Z,49.50
2022-12-08T15:53:25.300Z,58.33
2022-12-08T15:56:25.733Z,57.60
2022-12-08T15:58:57.043Z,94.32
2022-12-08T16:01:26.158Z,73.43
2022-12-08T16:07:19.713Z,48.08
2022-12-08T16:09:40.899Z,40.33
2022-12-08T16:13:48.343Z,70.95
2022-12-08T16:15:51.662Z,46.17
2022-12-08T16:18:29.642Z,43.60
2022-12-08T16:21:31.514Z,114.30
2022-12-08T16:23:45.773Z,86.60
2022-12-08T16:29:07.298Z,59.60
2022-12-08T16:31:34.807Z,43.97
2022-12-08T16:34:02.490Z,94.78
2022-12-08T16:36:29.738Z,70.30
2022-12-08T16:38:57.227Z,125.90
2022-12-08T16:41:42.972Z,126.10
2022-12-08T16:44:11.395Z,105.45
2022-12-08T16:46:39.279Z,154.70
2022-12-08T16:49:09.208Z,62.42
2022-12-08T16:51:36.470Z,63.33
2022-12-08T16:54:04.032Z,63.75
2022-12-08T16:56:33.413Z,64.93
2022-12-08T16:59:02.075Z,81.45
2022-12-08T17:01:29.870Z,68.68
2022-12-08T17:06:45.015Z,76.70
2022-12-08T17:09:12.780Z,90.70
2022-12-08T17:11:43.455Z,84.45
2022-12-08T17:14:13.142Z,82.68
2022-12-08T17:16:41.363Z,111.78
2022-12-08T17:19:09.644Z,162.52
2022-12-08T17:21:36.880Z,156.45
2022-12-08T17:24:05.089Z,155.45
2022-12-08T17:26:32.453Z,156.65
2022-12-08T17:29:02.322Z,181.00
2022-12-08T17:31:32.052Z,173.07
2022-12-08T17:34:05.297Z,151.10
2022-12-08T17:36:32.570Z,128.18
2022-12-08T17:39:01.234Z,115.78
2022-12-08T17:41:29.623Z,150.38
2022-12-08T17:43:57.830Z,229.63
2022-12-08T17:46:25.424Z,425.25
2022-12-08T17:48:53.709Z,249.05
2022-12-08T17:51:21.269Z,227.38
2022-12-08T17:53:48.981Z,189.32
2022-12-08T17:56:20.298Z,192.48
2022-12-08T17:58:54.350Z,188.93
2022-12-08T18:01:23.726Z,206.23
2022-12-08T18:03:51.759Z,207.57
2022-12-08T18:06:19.044Z,212.32
2022-12-08T18:08:46.985Z,194.50
2022-12-08T18:11:17.568Z,191.73
2022-12-08T18:13:45.758Z,196.85
2022-12-08T18:16:13.789Z,211.10
2022-12-08T18:18:41.738Z,215.98
2022-12-08T18:21:09.863Z,191.10
2022-12-08T18:23:57.896Z,174.57
2022-12-08T18:26:26.785Z,174.43
2022-12-08T18:28:54.545Z,164.32
2022-12-08T18:31:24.419Z,121.93
2022-12-08T18:33:52.742Z,103.80
2022-12-08T18:36:24.319Z,188.93
2022-12-08T18:38:53.149Z,192.27
2022-12-08T18:41:26.289Z,191.07
2022-12-08T18:43:55.746Z,189.27
2022-12-08T18:46:24.270Z,196.82
2022-12-08T18:48:52.422Z,193.65
2022-12-08T18:51:22.542Z,188.93
2022-12-08T18:53:50.801Z,181.80
2022-12-08T18:56:28.741Z,181.30
2022-12-08T18:59:02.864Z,171.68
2022-12-08T19:01:32.622Z,199.88
2022-12-08T19:06:51.878Z,279.80
2022-12-08T19:09:20.357Z,269.05
2022-12-08T19:11:47.731Z,235.70
2022-12-08T19:14:22.616Z,218.57
2022-12-08T19:16:53.503Z,234.63
2022-12-08T19:19:22.094Z,237.00
2022-12-08T19:21:49.287Z,344.05
2022-12-08T19:24:19.258Z,268.23
2022-12-08T19:26:47.459Z,336.33
2022-12-08T19:29:15.108Z,335.35
2022-12-08T19:31:42.981Z,316.92
2022-12-08T19:34:15.075Z,346.73
2022-12-08T19:36:43.120Z,296.48
2022-12-08T19:39:34.297Z,266.48
2022-12-08T19:42:22.324Z,262.02
2022-12-08T19:44:52.693Z,275.73
2022-12-08T19:47:26.274Z,255.93
2022-12-08T19:50:15.225Z,239.75
2022-12-08T19:52:43.129Z,238.57
2022-12-08T19:55:11.844Z,219.25
2022-12-08T19:57:39.505Z,167.75
2022-12-08T20:00:10.351Z,145.27
2022-12-08T20:02:39.314Z,156.85
2022-12-08T20:05:08.378Z,101.78
2022-12-08T20:07:36.509Z,88.38
2022-12-08T20:10:09.466Z,151.48
2022-12-08T20:12:37.781Z,226.43
2022-12-08T20:15:06.485Z,252.27
2022-12-08T20:17:38.679Z,208.52
2022-12-08T20:20:12.372Z,212.18
2022-12-08T20:22:40.464Z,227.32
2022-12-08T20:25:13.261Z,224.00
2022-12-08T20:27:41.572Z,229.77
2022-12-08T20:30:14.961Z,222.27
2022-12-08T20:32:45.648Z,199.40
2022-12-08T20:35:13.360Z,224.80
2022-12-08T20:37:41.373Z,287.00
2022-12-08T20:40:11.501Z,318.05
2022-12-08T20:42:58.099Z,330.05
2022-12-08T20:45:28.131Z,355.63
2022-12-08T20:47:56.082Z,350.02
2022-12-08T20:50:24.506Z,356.13
2022-12-08T20:52:55.377Z,484.73
2022-12-08T20:55:23.941Z,549.63
2022-12-08T20:57:52.027Z,576.08
2022-12-08T21:00:24.368Z,827.22
2022-12-08T21:02:56.563Z,633.85
2022-12-08T21:05:25.486Z,501.90
2022-12-08T21:07:53.597Z,472.27
2022-12-08T21:10:21.906Z,533.65
2022-12-08T21:12:49.742Z,418.00
2022-12-08T21:15:18.295Z,326.73
2022-12-08T21:17:46.524Z,247.52
2022-12-08T21:20:15.402Z,242.48
2022-12-08T21:22:44.102Z,314.52
2022-12-08T21:25:12.681Z,426.20
2022-12-08T21:27:42.036Z,354.90
2022-12-08T21:30:11.241Z,313.48
2022-12-08T21:32:39.699Z,284.10
2022-12-08T21:35:08.062Z,181.68
2022-12-08T21:37:35.780Z,268.00
2022-12-08T21:40:08.433Z,250.95
2022-12-08T21:42:45.571Z,233.05
2022-12-08T21:45:17.273Z,219.95
2022-12-08T21:47:46.332Z,87.57
2022-12-08T21:50:16.454Z,116.22
2022-12-08T21:52:45.819Z,158.40
2022-12-08T21:55:15.047Z,207.55
2022-12-08T21:57:42.890Z,150.18
2022-12-08T22:00:15.359Z,71.22
2022-12-08T22:02:43.808Z,80.50
2022-12-08T22:05:13.055Z,73.18
2022-12-08T22:07:41.360Z,77.43
2022-12-08T22:10:10.509Z,64.53
2022-12-08T22:12:38.614Z,66.07
2022-12-08T22:15:08.044Z,66.75
2022-12-08T22:17:44.539Z,74.88
2022-12-08T22:20:15.489Z,67.63
2022-12-08T22:22:44.332Z,57.28
2022-12-08T22:25:12.573Z,59.72
2022-12-08T22:27:40.665Z,52.22
2022-12-08T22:30:11.046Z,48.25
2022-12-08T22:32:39.314Z,47.38
2022-12-08T22:35:08.773Z,44.28
2022-12-08T22:37:36.288Z,56.13
2022-12-08T22:40:12.270Z,46.25
2022-12-08T22:42:41.226Z,46.25
2022-12-08T22:45:10.926Z,43.33
2022-12-08T22:47:38.355Z,46.22
2022-12-08T22:50:07.091Z,46.17
2022-12-08T22:52:35.225Z,47.50
2022-12-08T22:55:04.307Z,46.42
2022-12-08T22:57:31.891Z,48.85
2022-12-08T22:59:59.537Z,49.58
2022-12-08T23:02:27.878Z,48.05
2022-12-08T23:04:57.114Z,43.63
2022-12-08T23:07:25.165Z,43.03
2022-12-08T23:09:52.822Z,40.35
2022-12-08T23:12:24.652Z,39.80
2022-12-08T23:14:53.179Z,39.42
2022-12-08T23:17:22.126Z,38.88
2022-12-08T23:19:54.277Z,38.08
2022-12-08T23:22:23.007Z,37.42
2022-12-08T23:24:50.729Z,40.63
2022-12-08T23:27:18.408Z,40.47
2022-12-08T23:29:52.440Z,46.50
2022-12-08T23:32:20.275Z,51.10
2022-12-08T23:34:47.968Z,43.33
2022-12-08T23:37:17.086Z,42.53
2022-12-08T23:39:45.125Z,39.60
2022-12-08T23:42:12.855Z,36.70
2022-12-08T23:44:40.987Z,33.75
2022-12-08T23:47:10.899Z,29.15
2022-12-08T23:49:38.495Z,28.92
2022-12-08T23:52:05.963Z,30.83
2022-12-08T23:54:33.934Z,30.48
2022-12-08T23:57:01.466Z,28.55
2022-12-08T23:59:31.033Z,32.13
